createdAt,value
2019-03-25T00:00:39.623Z,101922.23
2019-03-25T00:05:33.632Z,101912.47
2019-03-25T00:10:27.744Z,101918.81
2019-03-25T00:15:21.741Z,101901.53
2019-03-25T00:20:15.785Z,101894.37
2019-03-25T00:25:09.771Z,101880.30
2019-03-25T00:30:04.662Z,101873.17
2019-03-25T00:34:58.627Z,101861.45
2019-03-25T00:39:52.593Z,101863.23
2019-03-25T00:44:46.597Z,101858.67
2019-03-25T00:49:40.592Z,101857.86
2019-03-25T00:54:34.554Z,101852.28
2019-03-25T00:59:28.831Z,101844.95
2019-03-25T01:04:22.833Z,101841.45
2019-03-25T01:09:16.811Z,101834.90
2019-03-25T01:14:10.780Z,101833.58
2019-03-25T01:19:04.739Z,101826.58
2019-03-25T01:23:58.803Z,101816.22
2019-03-25T01:28:52.774Z,101808.73
2019-03-25T01:33:46.737Z,101794.94
2019-03-25T01:38:40.698Z,101795.13
2019-03-25T01:43:34.776Z,101783.69
2019-03-25T01:48:28.739Z,101775.19
2019-03-25T01:53:22.709Z,101769.50
2019-03-25T01:58:16.769Z,101754.59
2019-03-25T02:03:10.711Z,101744.06
2019-03-25T02:08:04.681Z,101735.41
2019-03-25T02:12:58.748Z,101734.70
2019-03-25T02:17:52.719Z,101734.55
2019-03-25T02:22:46.870Z,101720.99
2019-03-25T02:27:40.938Z,101710.08
2019-03-25T02:32:34.993Z,101704.48
2019-03-25T02:37:29.268Z,101708.23
2019-03-25T02:42:23.261Z,101690.39
2019-03-25T02:47:17.513Z,101697.99
2019-03-25T02:52:11.493Z,101687.91
2019-03-25T02:57:05.436Z,101682.25
2019-03-25T03:01:59.403Z,101680.92
2019-03-25T03:06:53.493Z,101672.79
2019-03-25T03:11:47.464Z,101670.83
2019-03-25T03:16:41.545Z,101651.12
2019-03-25T03:21:35.523Z,101651.12
2019-03-25T03:26:29.477Z,101638.92
2019-03-25T03:31:23.477Z,101644.13
2019-03-25T03:36:17.512Z,101625.56
2019-03-25T03:41:11.479Z,101613.60
2019-03-25T03:46:05.635Z,101608.26
2019-03-25T03:51:00.117Z,101612.53
2019-03-25T03:55:54.180Z,101604.22
2019-03-25T04:00:48.331Z,101597.02
2019-03-25T04:05:42.365Z,101603.98
2019-03-25T04:10:36.325Z,101605.39
2019-03-25T04:15:30.590Z,101604.73
2019-03-25T04:20:24.554Z,101593.53
2019-03-25T04:25:18.530Z,101599.19
2019-03-25T04:30:12.686Z,101611.27
2019-03-25T04:35:06.958Z,101608.53
2019-03-25T04:40:01.487Z,101612.19
2019-03-25T04:44:55.425Z,101603.72
2019-03-25T04:49:49.416Z,101609.74
2019-03-25T04:54:43.389Z,101607.38
2019-03-25T04:59:37.444Z,101609.72
2019-03-25T05:04:31.409Z,101622.13
2019-03-25T05:09:25.404Z,101616.92
2019-03-25T05:14:19.404Z,101625.19
2019-03-25T05:19:13.425Z,101624.41
2019-03-25T05:24:07.431Z,101615.48
2019-03-25T05:29:01.495Z,101612.06
2019-03-25T05:33:55.455Z,101618.12
2019-03-25T05:38:49.405Z,101636.29
2019-03-25T05:43:43.366Z,101639.30
2019-03-25T05:48:37.365Z,101641.00
2019-03-25T05:53:31.325Z,101645.39
2019-03-25T05:58:25.471Z,101647.92
2019-03-25T06:03:19.629Z,101653.53
2019-03-25T06:08:13.656Z,101653.63
2019-03-25T06:13:07.638Z,101654.83
2019-03-25T06:18:01.751Z,101651.33
2019-03-25T06:22:55.829Z,101653.81
2019-03-25T06:32:49.934Z,101664.09
2019-03-25T06:37:43.953Z,101668.48
2019-03-25T06:42:37.925Z,101669.90
2019-03-25T06:47:31.962Z,101674.02
2019-03-25T06:52:25.922Z,101683.58
2019-03-25T06:57:25.503Z,101686.20
2019-03-25T07:02:15.996Z,101682.50
2019-03-25T07:07:10.130Z,101688.30
2019-03-25T07:12:04.215Z,101691.26
2019-03-25T07:16:58.182Z,101684.11
2019-03-25T07:21:52.264Z,101682.66
2019-03-25T07:26:46.433Z,101689.97
2019-03-25T07:31:40.523Z,101687.34
2019-03-25T07:36:34.527Z,101691.98
2019-03-25T07:41:28.513Z,101683.91
2019-03-25T07:46:22.579Z,101681.70
2019-03-25T07:51:16.817Z,101686.68
2019-03-25T07:56:10.886Z,101678.20
2019-03-25T08:01:04.872Z,101689.23
2019-03-25T08:05:58.939Z,101698.75
2019-03-25T08:10:52.941Z,101688.26
2019-03-25T08:15:47.042Z,101694.55
2019-03-25T08:20:41.087Z,101694.91
2019-03-25T08:25:35.139Z,101697.22
2019-03-25T08:30:29.434Z,101703.34
2019-03-25T08:35:23.396Z,101699.73
2019-03-25T08:40:17.472Z,101710.25
2019-03-25T08:45:11.590Z,101694.64
2019-03-25T08:50:07.217Z,101697.65
2019-03-25T08:55:01.182Z,101685.44
2019-03-25T08:59:57.464Z,101705.59
2019-03-25T09:04:51.220Z,101707.44
2019-03-25T09:09:45.286Z,101699.27
2019-03-25T09:14:39.227Z,101698.87
2019-03-25T09:19:33.320Z,101699.75
2019-03-25T09:24:27.288Z,101707.05
2019-03-25T09:29:21.389Z,101708.36
2019-03-25T09:34:15.686Z,101723.27
2019-03-25T09:39:09.886Z,101725.77
2019-03-25T09:44:04.095Z,101737.39
2019-03-25T09:48:58.211Z,101732.47
2019-03-25T09:53:52.168Z,101726.78
2019-03-25T09:58:46.316Z,101730.43
2019-03-25T10:03:40.401Z,101735.25
2019-03-25T10:08:34.481Z,101722.22
2019-03-25T10:13:28.500Z,101735.69
2019-03-25T10:18:22.584Z,101742.88
2019-03-25T10:23:16.554Z,101751.00
2019-03-25T10:28:10.543Z,101748.90
2019-03-25T10:33:04.643Z,101735.58
2019-03-25T10:37:58.641Z,101747.70
2019-03-25T10:42:52.594Z,101788.03
2019-03-25T10:47:46.596Z,101784.88
2019-03-25T10:52:40.803Z,101810.95
2019-03-25T10:57:34.851Z,101796.05
2019-03-25T11:02:29.332Z,101785.39
2019-03-25T11:07:23.475Z,101784.52
2019-03-25T11:12:17.484Z,101769.70
2019-03-25T11:17:11.552Z,101761.26
2019-03-25T11:22:05.648Z,101763.77
2019-03-25T11:26:59.628Z,101773.64
2019-03-25T11:31:53.609Z,101773.88
2019-03-25T11:36:47.679Z,101791.16
2019-03-25T11:41:41.760Z,101774.16
2019-03-25T11:46:35.930Z,101785.70
2019-03-25T11:51:30.087Z,101846.17
2019-03-25T11:56:24.071Z,101844.67
2019-03-25T12:01:18.136Z,101819.33
2019-03-25T12:06:12.220Z,101816.48
2019-03-25T12:11:06.294Z,101815.02
2019-03-25T12:16:00.367Z,101815.02
2019-03-25T12:20:54.389Z,101811.08
2019-03-25T12:25:48.570Z,101812.92
2019-03-25T12:30:42.634Z,101804.66
2019-03-25T12:35:36.715Z,101830.80
2019-03-25T12:40:30.895Z,101830.39
2019-03-25T12:45:24.901Z,101834.72
2019-03-25T12:50:19.326Z,101831.80
2019-03-25T12:55:13.399Z,101815.66
2019-03-25T13:00:07.790Z,101820.23
2019-03-25T13:05:03.072Z,101821.47
2019-03-25T13:09:57.159Z,101815.63
2019-03-25T13:14:51.148Z,101816.39
2019-03-25T13:19:45.137Z,101797.68
2019-03-25T13:24:39.194Z,101782.64
2019-03-25T13:29:33.282Z,101779.88
2019-03-25T13:34:27.405Z,101767.53
2019-03-25T13:39:21.430Z,101783.80
2019-03-25T13:44:15.561Z,101786.23
2019-03-25T13:49:09.577Z,101766.21
2019-03-25T13:54:03.871Z,101768.77
2019-03-25T13:58:58.077Z,101775.86
2019-03-25T14:03:52.146Z,101777.56
2019-03-25T14:08:46.110Z,101792.53
2019-03-25T14:13:48.692Z,101818.72
2019-03-25T14:18:35.981Z,101832.83
2019-03-25T14:23:30.018Z,101848.72
2019-03-25T14:28:23.991Z,101827.60
2019-03-25T14:33:17.973Z,101820.34
2019-03-25T14:38:12.068Z,101825.41
2019-03-25T14:43:06.314Z,101852.86
2019-03-25T14:48:00.556Z,101852.88
2019-03-25T14:52:54.649Z,101845.82
2019-03-25T14:57:48.740Z,101843.87
2019-03-25T15:02:42.745Z,101836.58
2019-03-25T15:07:36.893Z,101810.21
2019-03-25T15:12:31.188Z,101814.28
2019-03-25T15:17:25.190Z,101827.28
2019-03-25T15:22:19.146Z,101842.53
2019-03-25T15:27:13.140Z,101835.02
2019-03-25T15:32:07.126Z,101827.89
2019-03-25T15:37:01.345Z,101835.52
2019-03-25T15:41:55.477Z,101835.47
2019-03-25T15:46:55.641Z,101837.80
2019-03-25T15:51:45.347Z,101840.03
2019-03-25T15:56:39.367Z,101882.24
2019-03-25T16:01:33.443Z,101871.91
2019-03-25T16:06:27.407Z,101878.81
2019-03-25T16:11:21.489Z,101875.33
2019-03-25T16:16:15.541Z,101891.66
2019-03-25T16:21:09.727Z,101914.39
2019-03-25T16:26:04.139Z,101916.34
2019-03-25T16:30:59.208Z,101914.85
2019-03-25T16:35:53.427Z,101928.64
2019-03-25T16:40:47.422Z,101929.16
2019-03-25T16:45:41.403Z,101937.84
2019-03-25T16:50:35.421Z,101971.91
2019-03-25T16:55:29.508Z,101972.41
2019-03-25T17:00:27.577Z,101974.17
2019-03-25T17:05:19.501Z,101982.84
2019-03-25T17:10:13.519Z,101999.83
2019-03-25T17:15:08.187Z,102003.55
2019-03-25T17:20:03.518Z,102015.59
2019-03-25T17:24:57.812Z,102020.25
2019-03-25T17:29:52.012Z,102034.17
2019-03-25T17:34:46.003Z,102035.45
2019-03-25T17:39:40.016Z,102049.50
2019-03-25T17:44:34.101Z,102060.86
2019-03-25T17:49:28.320Z,102068.36
2019-03-25T17:54:22.692Z,102077.02
2019-03-25T17:59:16.772Z,102089.59
2019-03-25T18:04:10.875Z,102111.75
2019-03-25T18:09:06.103Z,102121.53
2019-03-25T18:14:00.093Z,102127.48
2019-03-25T18:18:54.270Z,102133.48
2019-03-25T18:23:48.286Z,102141.53
2019-03-25T18:28:42.592Z,102143.95
2019-03-25T18:33:36.691Z,102148.70
2019-03-25T18:38:30.925Z,102156.45
2019-03-25T18:43:25.053Z,102168.16
2019-03-25T18:48:19.726Z,102186.81
2019-03-25T18:53:13.899Z,102198.35
2019-03-25T18:58:08.295Z,102199.62
2019-03-25T19:03:03.200Z,102198.09
2019-03-25T19:08:02.527Z,102213.87
2019-03-25T19:12:56.568Z,102219.00
2019-03-25T19:17:51.232Z,102235.83
2019-03-25T19:22:45.423Z,102242.39
2019-03-25T19:27:39.409Z,102252.89
2019-03-25T19:32:33.401Z,102258.86
2019-03-25T19:37:27.552Z,102275.00
2019-03-25T19:42:21.620Z,102281.97
2019-03-25T19:47:16.080Z,102286.20
2019-03-25T19:52:10.344Z,102294.67
2019-03-25T19:57:04.503Z,102306.07
2019-03-25T20:01:58.463Z,102313.30
2019-03-25T20:06:52.721Z,102333.55
2019-03-25T20:11:46.890Z,102336.67
2019-03-25T20:16:40.985Z,102342.61
2019-03-25T20:21:35.127Z,102359.76
2019-03-25T20:26:29.165Z,102362.64
2019-03-25T20:31:23.227Z,102359.82
2019-03-25T20:36:17.382Z,102377.05
2019-03-25T20:41:11.429Z,102378.53
2019-03-25T20:46:05.666Z,102380.95
2019-03-25T20:50:59.857Z,102393.89
2019-03-25T20:55:53.933Z,102398.55
2019-03-25T21:01:03.634Z,102404.22
2019-03-25T21:05:58.103Z,102416.37
2019-03-25T21:10:52.193Z,102427.88
2019-03-25T21:15:46.390Z,102431.32
2019-03-25T21:20:40.403Z,102444.77
2019-03-25T21:25:34.505Z,102452.34
2019-03-25T21:30:28.679Z,102468.55
2019-03-25T21:35:22.863Z,102482.50
2019-03-25T21:40:17.061Z,102476.66
2019-03-25T21:45:11.183Z,102483.64
2019-03-25T21:50:05.931Z,102491.23
2019-03-25T21:55:00.012Z,102497.58
2019-03-25T21:59:54.089Z,102506.41
2019-03-25T22:04:48.212Z,102508.06
2019-03-25T22:09:42.193Z,102521.89
2019-03-25T22:14:36.277Z,102526.41
2019-03-25T22:19:30.440Z,102533.80
2019-03-25T22:24:24.400Z,102533.36
2019-03-25T22:29:18.487Z,102528.06
2019-03-25T22:34:12.467Z,102533.22
2019-03-25T22:39:06.597Z,102533.88
2019-03-25T22:44:00.565Z,102542.81
2019-03-25T22:48:54.588Z,102538.56
2019-03-25T22:53:48.570Z,102547.25
2019-03-25T22:58:42.662Z,102559.29
2019-03-25T23:03:39.331Z,102559.19
2019-03-25T23:08:34.537Z,102565.34
2019-03-25T23:13:28.709Z,102565.34
2019-03-25T23:18:22.788Z,102562.57
2019-03-25T23:23:16.767Z,102564.72
2019-03-25T23:28:10.835Z,102569.03
2019-03-25T23:33:04.799Z,102570.73
2019-03-25T23:37:58.993Z,102575.09
2019-03-25T23:42:52.961Z,102573.09
2019-03-25T23:47:47.036Z,102581.72
2019-03-25T23:52:41.130Z,102586.12
2019-03-25T23:57:35.084Z,102589.06
